createdAt,value
2023-03-08T00:03:20.797Z,22.31
2023-03-08T00:08:22.188Z,22.27
2023-03-08T00:13:23.875Z,22.18
2023-03-08T00:18:25.386Z,22.23
2023-03-08T00:23:26.781Z,22.27
2023-03-08T00:28:28.264Z,22.29
2023-03-08T00:33:30.375Z,22.18
2023-03-08T00:38:33.450Z,22.20
2023-03-08T00:43:34.856Z,22.25
2023-03-08T00:48:36.251Z,22.26
2023-03-08T00:53:37.626Z,22.21
2023-03-08T00:58:39.702Z,22.21
2023-03-08T01:03:41.143Z,22.27
2023-03-08T01:08:42.653Z,22.33
2023-03-08T01:13:44.113Z,22.26
2023-03-08T01:18:45.573Z,22.21
2023-03-08T01:23:46.965Z,22.27
2023-03-08T01:28:48.405Z,22.29
2023-03-08T01:33:49.882Z,22.23
2023-03-08T01:38:51.294Z,22.16
2023-03-08T01:43:52.800Z,22.25
2023-03-08T01:49:04.458Z,22.29
2023-03-08T01:54:12.372Z,22.25
2023-03-08T01:59:13.765Z,22.18
2023-03-08T02:04:15.175Z,22.24
2023-03-08T02:09:16.559Z,22.33
2023-03-08T02:14:17.964Z,22.31
2023-03-08T02:19:25.149Z,22.22
2023-03-08T02:24:26.549Z,22.26
2023-03-08T02:29:27.920Z,22.29
2023-03-08T02:34:29.313Z,22.27
2023-03-08T02:39:30.745Z,22.24
2023-03-08T02:44:32.131Z,22.20
2023-03-08T02:49:33.506Z,22.27
2023-03-08T02:54:34.876Z,22.30
2023-03-08T02:59:36.251Z,22.24
2023-03-08T03:04:37.753Z,22.19
2023-03-08T03:09:39.210Z,22.20
2023-03-08T03:14:40.623Z,22.28
2023-03-08T03:19:42.010Z,22.27
2023-03-08T03:24:43.380Z,22.23
2023-03-08T03:29:44.806Z,22.24
2023-03-08T03:34:46.584Z,22.29
2023-03-08T03:39:47.956Z,22.29
2023-03-08T03:44:49.358Z,22.24
2023-03-08T03:49:50.751Z,22.20
2023-03-08T03:54:52.118Z,22.28
2023-03-08T03:59:53.507Z,22.31
2023-03-08T04:04:54.889Z,22.28
2023-03-08T04:09:56.353Z,22.20
2023-03-08T04:14:57.767Z,22.26
2023-03-08T04:19:59.272Z,22.33
2023-03-08T04:25:00.674Z,22.29
2023-03-08T04:30:02.123Z,22.24
2023-03-08T04:35:03.590Z,22.25
2023-03-08T04:40:09.132Z,22.29
2023-03-08T04:45:10.883Z,22.30
2023-03-08T04:50:12.281Z,22.23
2023-03-08T04:55:13.643Z,22.25
2023-03-08T05:00:15.711Z,22.31
2023-03-08T05:05:17.117Z,22.31
2023-03-08T05:10:18.524Z,22.20
2023-03-08T05:15:19.962Z,22.22
2023-03-08T05:20:21.359Z,22.30
2023-03-08T05:25:22.737Z,22.32
2023-03-08T05:30:24.155Z,22.26
2023-03-08T05:35:25.556Z,22.24
2023-03-08T05:40:26.931Z,22.34
2023-03-08T05:45:28.453Z,22.36
2023-03-08T05:50:29.896Z,22.34
2023-03-08T05:55:31.268Z,22.30
2023-03-08T06:00:32.658Z,22.38
2023-03-08T06:05:34.067Z,22.41
2023-03-08T06:10:35.439Z,22.36
2023-03-08T06:15:36.846Z,22.33
2023-03-08T06:20:38.250Z,22.36
2023-03-08T06:25:39.632Z,22.43
2023-03-08T06:30:41.056Z,22.39
2023-03-08T06:35:42.660Z,22.33
2023-03-08T06:40:44.076Z,22.31
2023-03-08T06:45:45.676Z,22.40
2023-03-08T06:50:47.114Z,22.45
2023-03-08T06:55:48.504Z,22.38
2023-03-08T07:00:49.953Z,22.29
2023-03-08T07:05:51.361Z,22.37
2023-03-08T07:10:53.094Z,22.39
2023-03-08T07:15:54.645Z,22.40
2023-03-08T07:20:56.476Z,22.31
2023-03-08T07:25:57.866Z,22.33
2023-03-08T07:30:59.279Z,22.39
2023-03-08T07:36:02.155Z,22.41
2023-03-08T07:41:03.616Z,22.37
2023-03-08T07:46:05.112Z,22.28
2023-03-08T07:51:08.707Z,22.37
2023-03-08T07:56:10.276Z,22.44
2023-03-08T08:01:12.070Z,22.40
2023-03-08T08:06:13.491Z,22.38
2023-03-08T08:11:16.048Z,22.49
2023-03-08T08:16:17.512Z,22.65
2023-03-08T08:21:18.928Z,22.67
2023-03-08T08:26:20.989Z,22.61
2023-03-08T08:31:23.824Z,22.51
2023-03-08T08:36:25.470Z,22.60
2023-03-08T08:41:27.992Z,22.71
2023-03-08T08:46:30.837Z,22.68
2023-03-08T08:51:32.321Z,22.51
2023-03-08T08:56:34.405Z,22.52
2023-03-08T09:01:36.864Z,22.63
2023-03-08T09:06:38.368Z,22.70
2023-03-08T09:11:52.165Z,22.57
2023-03-08T09:16:55.959Z,22.50
2023-03-08T09:21:57.403Z,22.60
2023-03-08T09:26:58.797Z,22.63
2023-03-08T09:32:00.619Z,22.63
2023-03-08T09:37:02.841Z,22.48
2023-03-08T09:42:04.345Z,22.51
2023-03-08T09:47:09.255Z,22.59
2023-03-08T09:52:11.819Z,22.64
2023-03-08T09:57:16.662Z,22.58
2023-03-08T10:02:26.213Z,22.48
2023-03-08T10:07:41.483Z,22.60
2023-03-08T10:13:01.323Z,22.66
2023-03-08T10:18:12.209Z,22.65
2023-03-08T10:23:21.186Z,22.51
2023-03-08T10:28:24.178Z,22.59
2023-03-08T10:33:33.462Z,22.76
2023-03-08T10:38:36.046Z,22.78
2023-03-08T10:43:40.095Z,22.82
2023-03-08T10:48:41.638Z,22.70
2023-03-08T10:53:55.535Z,22.85
2023-03-08T10:58:57.224Z,22.93
2023-03-08T11:04:06.585Z,22.95
2023-03-08T11:09:22.825Z,22.89
2023-03-08T11:14:24.711Z,22.86
2023-03-08T11:19:53.911Z,22.98
2023-03-08T11:25:14.080Z,23.04
2023-03-08T11:30:27.929Z,22.98
2023-03-08T11:35:35.441Z,23.01
2023-03-08T11:40:50.896Z,23.04
2023-03-08T11:46:12.423Z,23.06
2023-03-08T11:51:30.980Z,23.06
2023-03-08T11:56:47.646Z,22.94
2023-03-08T12:02:11.302Z,22.93
2023-03-08T12:07:26.328Z,23.09
2023-03-08T12:12:32.336Z,23.12
2023-03-08T12:17:40.657Z,23.03
2023-03-08T12:22:46.157Z,22.96
2023-03-08T12:27:50.484Z,23.04
2023-03-08T12:32:54.622Z,23.14
2023-03-08T12:38:05.009Z,23.10
2023-03-08T12:43:11.742Z,23.02
2023-03-08T12:48:19.032Z,23.03
2023-03-08T12:53:40.610Z,23.12
2023-03-08T12:58:57.876Z,23.15
2023-03-08T13:03:59.782Z,23.14
2023-03-08T13:09:14.250Z,23.03
2023-03-08T13:14:44.773Z,23.08
2023-03-08T13:19:46.184Z,23.12
2023-03-08T13:25:00.007Z,23.07
2023-03-08T13:30:17.707Z,23.00
2023-03-08T13:35:19.933Z,22.84
2023-03-08T13:40:21.830Z,22.97
2023-03-08T13:45:23.268Z,23.10
2023-03-08T13:50:30.539Z,23.04
2023-03-08T13:55:38.588Z,23.05
2023-03-08T14:00:40.264Z,22.99
2023-03-08T14:05:43.524Z,23.08
2023-03-08T14:10:46.900Z,23.24
2023-03-08T14:15:56.479Z,23.22
2023-03-08T14:21:14.869Z,23.06
2023-03-08T14:26:35.400Z,23.03
2023-03-08T14:31:38.856Z,23.14
2023-03-08T14:36:46.595Z,23.18
2023-03-08T14:41:47.977Z,23.13
2023-03-08T14:46:50.676Z,23.09
2023-03-08T14:51:52.790Z,23.07
2023-03-08T14:56:54.180Z,23.08
2023-03-08T15:01:55.671Z,23.18
2023-03-08T15:06:57.093Z,23.19
2023-03-08T15:12:01.732Z,23.11
2023-03-08T15:17:03.161Z,23.08
2023-03-08T15:22:05.105Z,23.16
2023-03-08T15:27:06.540Z,23.22
2023-03-08T15:32:08.163Z,23.21
2023-03-08T15:37:13.576Z,23.08
2023-03-08T15:42:14.962Z,23.08
2023-03-08T15:47:16.637Z,23.25
2023-03-08T15:52:18.092Z,23.25
2023-03-08T15:57:19.494Z,23.20
2023-03-08T16:02:20.997Z,23.05
2023-03-08T16:07:22.437Z,23.11
2023-03-08T16:12:23.998Z,23.17
2023-03-08T16:17:25.852Z,23.17
2023-03-08T16:22:28.936Z,23.05
2023-03-08T16:27:31.129Z,23.03
2023-03-08T16:32:32.638Z,23.03
2023-03-08T16:37:34.257Z,23.12
2023-03-08T16:42:35.682Z,23.09
2023-03-08T16:47:37.081Z,23.04
2023-03-08T16:52:38.463Z,23.04
2023-03-08T16:57:40.143Z,23.17
2023-03-08T17:02:41.546Z,23.16
2023-03-08T17:07:42.944Z,23.07
2023-03-08T17:12:44.324Z,22.89
2023-03-08T17:17:45.736Z,22.74
2023-03-08T17:22:47.116Z,22.78
2023-03-08T17:27:48.528Z,22.79
2023-03-08T17:32:49.915Z,22.72
2023-03-08T17:37:51.488Z,22.48
2023-03-08T17:42:52.911Z,22.56
2023-03-08T17:48:00.913Z,22.62
2023-03-08T17:53:02.314Z,22.63
2023-03-08T17:58:03.923Z,22.52
2023-03-08T18:03:05.322Z,22.44
2023-03-08T18:08:06.691Z,22.56
2023-03-08T18:13:08.055Z,22.60
2023-03-08T18:18:09.454Z,22.56
2023-03-08T18:23:10.870Z,22.46
2023-03-08T18:28:12.284Z,22.48
2023-03-08T18:33:13.768Z,22.53
2023-03-08T18:38:15.183Z,22.51
2023-03-08T18:43:16.640Z,22.39
2023-03-08T18:48:18.097Z,22.39
2023-03-08T18:53:19.471Z,22.52
2023-03-08T18:58:20.962Z,22.55
2023-03-08T19:03:22.450Z,22.49
2023-03-08T19:08:23.869Z,22.40
2023-03-08T19:13:25.276Z,22.44
2023-03-08T19:18:26.654Z,22.53
2023-03-08T19:23:28.027Z,22.56
2023-03-08T19:28:29.472Z,22.41
2023-03-08T19:33:31.848Z,22.40
2023-03-08T19:38:33.371Z,22.45
2023-03-08T19:43:34.763Z,22.52
2023-03-08T19:48:36.480Z,22.43
2023-03-08T19:53:37.852Z,22.32
2023-03-08T19:58:39.221Z,22.41
2023-03-08T20:03:40.635Z,22.49
2023-03-08T20:08:42.064Z,22.48
2023-03-08T20:13:43.468Z,22.37
2023-03-08T20:18:45.111Z,22.33
2023-03-08T20:23:46.867Z,22.44
2023-03-08T20:28:49.505Z,22.47
2023-03-08T20:33:50.997Z,22.42
2023-03-08T20:38:52.420Z,22.40
2023-03-08T20:43:57.239Z,22.35
2023-03-08T20:48:58.718Z,22.45
2023-03-08T20:54:00.123Z,22.46
2023-03-08T20:59:02.265Z,22.42
2023-03-08T21:04:04.911Z,22.34
2023-03-08T21:09:06.307Z,22.42
2023-03-08T21:14:07.713Z,22.45
2023-03-08T21:19:09.179Z,22.48
2023-03-08T21:24:14.908Z,22.37
2023-03-08T21:29:16.714Z,22.33
2023-03-08T21:34:18.545Z,22.40
2023-03-08T21:39:19.949Z,22.42
2023-03-08T21:44:21.322Z,22.37
2023-03-08T21:49:25.158Z,22.32
2023-03-08T21:54:26.986Z,22.38
2023-03-08T21:59:29.134Z,22.39
2023-03-08T22:04:30.608Z,22.41
2023-03-08T22:09:31.987Z,22.35
2023-03-08T22:14:33.456Z,22.32
2023-03-08T22:19:34.831Z,22.39
2023-03-08T22:24:36.195Z,22.45
2023-03-08T22:29:37.600Z,22.38
2023-03-08T22:34:39.034Z,22.34
2023-03-08T22:39:40.429Z,22.38
2023-03-08T22:44:41.820Z,22.44
2023-03-08T22:49:43.267Z,22.38
2023-03-08T22:54:44.824Z,22.32
2023-03-08T22:59:46.776Z,22.35
2023-03-08T23:04:48.776Z,22.39
2023-03-08T23:09:50.156Z,22.40
2023-03-08T23:14:51.526Z,22.34
2023-03-08T23:19:52.910Z,22.32
2023-03-08T23:24:54.284Z,22.38
2023-03-08T23:29:55.682Z,22.37
2023-03-08T23:34:57.097Z,22.36
2023-03-08T23:39:58.515Z,22.36
2023-03-08T23:44:59.896Z,22.40
2023-03-08T23:50:01.305Z,22.44
2023-03-08T23:55:02.753Z,22.39
